ROMMA est une association bénévole à but non lucratif. Votre soutien est indispensable : ADHERER à ROMMA ou FAIRE un DON

Le Versoud - (38, Isère)

Vallée du Grésivaudan (220 m)   Longitude: 05° 51' 44" E   Latitude: 45° 13' 06" N Station partenaire n°6
 

Détail journalier du     <<     >>

Température Humidité Pression Vent Dir Rafale Dir. rafale Ensol.
Heure (°C) (%) (hPa) (km/h) (km/h) (min)
01:00 8.796101900---0
02:00 8.696102000---0
03:00 8.896102000---0
04:00 8.296102000---0
05:00 7.896102000---0
06:00 8.196102002NNE0
07:00 8.296102100---0
08:00 7.796102102NNE0
09:00 7.697102200---0
10:00 8.697102202NNE0
11:00 10.897102302NNE25
12:00 14.282102202NNE30
13:00 15.973102205NE60
14:00 17.66410221S10SSE60
15:00 19.1521021011NE60
16:00 19.24710203NE18NE60
17:00 19.44410206NE23NE60
18:00 18.84810204NE24ENE60
19:00 16.1631021016N35
20:00 12.874102100---0
21:00 11.778102200---0
22:00 10.185102200---0
23:00 9.886102200---0
minuit 8.789102300---0

Graphique du 10-10-2019

 

Serveur OMMA